createdAt,value
2023-01-07T00:01:04.452Z,78.59
2023-01-07T00:03:32.055Z,78.32
2023-01-07T00:06:02.463Z,78.09
2023-01-07T00:08:34.070Z,78.38
2023-01-07T00:11:02.434Z,79.33
2023-01-07T00:13:30.407Z,79.16
2023-01-07T00:15:59.304Z,79.78
2023-01-07T00:18:27.544Z,79.67
2023-01-07T00:20:57.047Z,80.30
2023-01-07T00:23:26.089Z,80.04
2023-01-07T00:26:01.456Z,80.79
2023-01-07T00:28:29.560Z,80.92
2023-01-07T00:31:00.258Z,81.14
2023-01-07T00:33:28.108Z,81.05
2023-01-07T00:36:00.183Z,80.81
2023-01-07T00:38:29.255Z,80.46
2023-01-07T00:40:57.552Z,80.66
2023-01-07T00:43:25.128Z,81.05
2023-01-07T00:45:53.372Z,80.77
2023-01-07T00:48:21.361Z,81.12
2023-01-07T00:50:50.500Z,81.14
2023-01-07T00:53:18.866Z,80.19
2023-01-07T00:55:50.447Z,79.24
2023-01-07T00:58:21.351Z,79.39
2023-01-07T01:00:49.845Z,79.77
2023-01-07T01:03:17.511Z,80.17
2023-01-07T01:05:45.555Z,80.54
2023-01-07T01:08:13.290Z,81.36
2023-01-07T01:10:41.345Z,82.26
2023-01-07T01:13:13.693Z,82.01
2023-01-07T01:15:43.304Z,81.87
2023-01-07T01:18:11.237Z,81.62
2023-01-07T01:20:39.392Z,81.38
2023-01-07T01:23:07.438Z,80.34
2023-01-07T01:25:35.472Z,80.04
2023-01-07T01:28:03.837Z,80.43
2023-01-07T01:30:33.412Z,80.64
2023-01-07T01:33:01.007Z,80.59
2023-01-07T01:35:29.141Z,80.17
2023-01-07T01:37:56.707Z,80.35
2023-01-07T01:40:29.112Z,80.94
2023-01-07T01:42:59.382Z,80.16
2023-01-07T01:45:27.907Z,81.02
2023-01-07T01:47:59.632Z,80.68
2023-01-07T01:50:30.785Z,80.41
2023-01-07T01:53:02.047Z,80.18
2023-01-07T01:55:35.180Z,79.70
2023-01-07T01:58:04.205Z,79.04
2023-01-07T02:00:33.422Z,79.11
2023-01-07T02:03:06.916Z,79.03
2023-01-07T02:05:40.430Z,78.87
2023-01-07T02:08:11.752Z,78.55
2023-01-07T02:10:40.224Z,78.16
2023-01-07T02:13:28.843Z,78.08
2023-01-07T02:16:02.068Z,77.62
2023-01-07T02:18:51.508Z,77.39
2023-01-07T02:21:30.195Z,76.63
2023-01-07T02:24:38.261Z,76.11
2023-01-07T02:27:33.692Z,75.98
2023-01-07T02:30:33.257Z,75.63
2023-01-07T02:33:37.469Z,76.64
2023-01-07T02:36:17.510Z,75.19
2023-01-07T02:38:59.341Z,74.34
2023-01-07T02:41:38.060Z,72.62
2023-01-07T02:44:12.306Z,72.25
2023-01-07T02:46:46.863Z,71.33
2023-01-07T02:49:18.170Z,72.24
2023-01-07T02:51:46.920Z,73.98
2023-01-07T02:54:20.134Z,72.71
2023-01-07T02:57:15.395Z,71.98
2023-01-07T03:00:05.624Z,71.83
2023-01-07T03:02:52.457Z,71.60
2023-01-07T03:05:37.733Z,73.54
2023-01-07T03:08:18.041Z,73.97
2023-01-07T03:10:52.765Z,73.48
2023-01-07T03:13:27.023Z,72.38
2023-01-07T03:16:01.891Z,74.11
2023-01-07T03:18:32.217Z,75.16
2023-01-07T03:21:05.862Z,74.92
2023-01-07T03:23:36.087Z,76.03
2023-01-07T03:26:06.873Z,76.96
2023-01-07T03:28:37.625Z,77.35
2023-01-07T03:31:08.284Z,78.43
2023-01-07T03:33:42.582Z,78.27
2023-01-07T03:36:15.892Z,76.54
2023-01-07T03:38:46.434Z,75.47
2023-01-07T03:41:14.440Z,77.50
2023-01-07T03:43:41.993Z,78.38
2023-01-07T03:46:10.023Z,79.07
2023-01-07T03:48:37.652Z,77.47
2023-01-07T03:51:05.726Z,74.25
2023-01-07T03:53:34.841Z,73.99
2023-01-07T03:56:03.183Z,74.70
2023-01-07T03:58:30.935Z,78.50
2023-01-07T04:00:59.329Z,76.82
2023-01-07T04:03:26.979Z,76.14
2023-01-07T04:05:55.059Z,75.05
2023-01-07T04:08:22.678Z,75.39
2023-01-07T04:10:52.045Z,76.67
2023-01-07T04:13:20.105Z,76.54
2023-01-07T04:15:48.068Z,76.62
2023-01-07T04:18:15.622Z,78.03
2023-01-07T04:20:46.095Z,78.62
2023-01-07T04:23:13.644Z,78.16
2023-01-07T04:25:46.093Z,76.80
2023-01-07T04:28:15.126Z,74.71
2023-01-07T04:30:43.236Z,74.77
2023-01-07T04:33:10.961Z,74.15
2023-01-07T04:35:39.933Z,74.90
2023-01-07T04:38:07.528Z,76.59
2023-01-07T04:40:35.429Z,75.32
2023-01-07T04:43:03.535Z,76.91
2023-01-07T04:45:33.246Z,77.99
2023-01-07T04:48:00.900Z,77.36
2023-01-07T04:50:28.935Z,77.03
2023-01-07T04:52:56.675Z,78.65
2023-01-07T04:55:24.646Z,80.56
2023-01-07T04:57:52.299Z,80.88
2023-01-07T05:00:20.529Z,81.92
2023-01-07T05:02:50.359Z,83.07
2023-01-07T05:05:20.758Z,83.05
2023-01-07T05:07:48.547Z,83.42
2023-01-07T05:10:16.437Z,84.25
2023-01-07T05:12:44.036Z,85.78
2023-01-07T05:15:12.882Z,85.31
2023-01-07T05:17:40.654Z,85.33
2023-01-07T05:20:11.985Z,85.09
2023-01-07T05:22:39.479Z,84.37
2023-01-07T05:25:08.148Z,84.59
2023-01-07T05:27:35.716Z,85.26
2023-01-07T05:30:04.156Z,84.40
2023-01-07T05:32:31.959Z,83.66
2023-01-07T05:34:59.874Z,83.71
2023-01-07T05:37:29.026Z,82.65
2023-01-07T05:39:57.189Z,82.15
2023-01-07T05:42:24.867Z,81.74
2023-01-07T05:44:52.874Z,82.29
2023-01-07T05:47:20.402Z,83.08
2023-01-07T05:49:48.996Z,84.69
2023-01-07T05:52:16.521Z,85.51
2023-01-07T05:54:46.023Z,86.18
2023-01-07T05:57:13.681Z,86.44
2023-01-07T05:59:42.063Z,85.93
2023-01-07T06:02:09.707Z,85.25
2023-01-07T06:04:37.656Z,84.72
2023-01-07T06:07:05.208Z,84.65
2023-01-07T06:09:33.255Z,85.33
2023-01-07T06:12:02.267Z,85.45
2023-01-07T06:14:30.443Z,85.72
2023-01-07T06:16:58.156Z,86.38
2023-01-07T06:19:26.124Z,87.35
2023-01-07T06:21:53.994Z,86.48
2023-01-07T06:24:22.052Z,85.77
2023-01-07T06:26:49.819Z,84.58
2023-01-07T06:29:19.835Z,83.69
2023-01-07T06:31:47.556Z,83.13
2023-01-07T06:34:15.526Z,83.14
2023-01-07T06:36:43.133Z,85.02
2023-01-07T06:39:11.560Z,86.72
2023-01-07T06:41:39.231Z,86.52
2023-01-07T06:44:07.501Z,85.24
2023-01-07T06:46:36.753Z,84.22
2023-01-07T06:49:04.928Z,83.51
2023-01-07T06:51:32.569Z,83.79
2023-01-07T06:57:37.793Z,83.83
2023-01-07T07:00:06.889Z,83.75
2023-01-07T07:02:36.076Z,83.20
2023-01-07T07:05:04.584Z,82.83
2023-01-07T07:07:32.189Z,83.23
2023-01-07T07:10:00.228Z,83.08
2023-01-07T07:12:27.665Z,83.82
2023-01-07T07:14:55.839Z,84.02
2023-01-07T07:17:23.598Z,84.56
2023-01-07T07:19:53.228Z,84.72
2023-01-07T07:22:20.839Z,85.24
2023-01-07T07:24:48.711Z,85.28
2023-01-07T07:27:17.358Z,84.93
2023-01-07T07:29:51.276Z,84.92
2023-01-07T07:32:24.968Z,84.36
2023-01-07T07:34:54.865Z,84.18
2023-01-07T07:37:22.690Z,84.44
2023-01-07T07:39:50.712Z,83.67
2023-01-07T07:42:18.491Z,83.68
2023-01-07T07:44:46.548Z,83.17
2023-01-07T07:47:14.109Z,83.49
2023-01-07T07:49:42.172Z,84.51
2023-01-07T07:52:11.172Z,84.39
2023-01-07T07:54:39.561Z,83.65
2023-01-07T07:57:07.206Z,84.40
2023-01-07T07:59:35.392Z,84.72
2023-01-07T08:02:03.233Z,83.42
2023-01-07T08:04:31.253Z,83.22
2023-01-07T08:06:58.829Z,81.81
2023-01-07T08:09:28.233Z,80.40
2023-01-07T08:11:55.786Z,80.63
2023-01-07T08:14:23.664Z,80.01
2023-01-07T08:16:51.258Z,79.96
2023-01-07T08:19:19.271Z,79.93
2023-01-07T08:21:46.796Z,79.14
2023-01-07T08:24:15.513Z,78.80
2023-01-07T08:26:44.640Z,78.30
2023-01-07T08:29:12.524Z,78.09
2023-01-07T08:31:48.788Z,77.96
2023-01-07T08:34:17.179Z,77.85
2023-01-07T08:36:44.768Z,77.18
2023-01-07T08:39:13.242Z,77.01
2023-01-07T08:41:41.082Z,76.90
2023-01-07T08:44:10.471Z,76.18
2023-01-07T08:46:38.070Z,76.26
2023-01-07T08:49:06.136Z,76.27
2023-01-07T08:51:33.645Z,75.98
2023-01-07T08:54:01.716Z,76.50
2023-01-07T08:56:29.370Z,76.70
2023-01-07T08:58:57.421Z,76.59
2023-01-07T09:01:26.551Z,76.29
2023-01-07T09:03:54.487Z,76.37
2023-01-07T09:06:22.285Z,75.93
2023-01-07T09:08:50.522Z,76.69
2023-01-07T09:11:18.087Z,76.26
2023-01-07T09:13:45.984Z,75.39
2023-01-07T09:16:13.860Z,75.57
2023-01-07T09:18:43.275Z,76.05
2023-01-07T09:21:10.845Z,76.72
2023-01-07T09:23:39.041Z,76.69
2023-01-07T09:26:06.877Z,79.01
2023-01-07T09:28:35.024Z,79.48
2023-01-07T09:31:02.669Z,79.02
2023-01-07T09:33:30.664Z,78.52
2023-01-07T09:38:27.813Z,77.79
2023-01-07T09:40:55.906Z,77.53
2023-01-07T09:44:00.835Z,76.96
2023-01-07T09:46:18.349Z,76.34
2023-01-07T09:48:48.988Z,77.12
2023-01-07T09:51:23.965Z,76.71
2023-01-07T09:53:55.102Z,75.64
2023-01-07T09:56:27.016Z,76.78
2023-01-07T09:58:56.244Z,76.12
2023-01-07T10:01:31.369Z,77.18
2023-01-07T10:04:17.442Z,76.88
2023-01-07T10:06:55.063Z,76.19
2023-01-07T10:09:34.334Z,74.65
2023-01-07T10:12:09.804Z,75.43
2023-01-07T10:15:05.220Z,74.62
2023-01-07T10:17:47.319Z,73.81
2023-01-07T10:20:23.776Z,73.60
2023-01-07T10:23:00.954Z,73.50
2023-01-07T10:25:34.188Z,75.00
2023-01-07T10:28:06.630Z,74.85
2023-01-07T10:30:44.121Z,74.67
2023-01-07T10:33:20.084Z,73.82
2023-01-07T10:35:53.057Z,73.10
2023-01-07T10:38:21.760Z,72.44
2023-01-07T10:40:54.415Z,71.91
2023-01-07T10:43:39.435Z,70.18
2023-01-07T10:46:26.326Z,70.36
2023-01-07T10:49:31.856Z,71.51
2023-01-07T10:52:24.954Z,71.79
2023-01-07T10:55:26.190Z,71.86
2023-01-07T10:57:54.158Z,72.74
2023-01-07T11:00:24.202Z,72.70
2023-01-07T11:02:56.655Z,72.19
2023-01-07T11:05:25.616Z,71.41
2023-01-07T11:07:57.096Z,70.96
2023-01-07T11:10:31.250Z,69.91
2023-01-07T11:13:02.196Z,70.54
2023-01-07T11:15:33.528Z,67.67
2023-01-07T11:18:04.224Z,68.79
2023-01-07T11:20:47.212Z,69.52
2023-01-07T11:23:27.413Z,70.08
2023-01-07T11:26:08.250Z,70.28
2023-01-07T11:28:37.527Z,70.21
2023-01-07T11:31:05.683Z,69.90
2023-01-07T11:34:01.755Z,70.32
2023-01-07T11:36:40.270Z,69.34
2023-01-07T11:39:11.086Z,69.09
2023-01-07T11:41:52.707Z,67.45
2023-01-07T11:44:20.692Z,68.68
2023-01-07T11:46:48.512Z,70.12
2023-01-07T11:49:26.418Z,67.48
2023-01-07T11:51:54.593Z,66.30
2023-01-07T11:54:25.214Z,64.50
2023-01-07T11:57:12.123Z,64.57
2023-01-07T11:59:40.053Z,64.01
2023-01-07T12:02:24.423Z,63.90
2023-01-07T12:04:52.514Z,64.35
2023-01-07T12:07:20.303Z,65.00
2023-01-07T12:09:48.277Z,64.32
2023-01-07T12:12:22.627Z,63.82
2023-01-07T12:14:50.809Z,64.72
2023-01-07T12:17:22.672Z,64.61
2023-01-07T12:20:05.220Z,63.76
2023-01-07T12:22:44.461Z,62.81
2023-01-07T12:25:34.415Z,61.98
2023-01-07T12:28:11.069Z,59.33
2023-01-07T12:31:05.570Z,60.66
2023-01-07T12:33:46.422Z,60.62
2023-01-07T12:36:19.939Z,59.49
2023-01-07T12:38:49.812Z,60.24
2023-01-07T12:41:24.013Z,62.59
2023-01-07T12:43:58.997Z,64.66
2023-01-07T12:46:31.201Z,66.44
2023-01-07T12:49:04.270Z,66.26
2023-01-07T12:51:39.362Z,65.49
2023-01-07T12:54:16.256Z,65.36
2023-01-07T12:56:51.343Z,65.79
2023-01-07T12:59:46.569Z,65.70
2023-01-07T13:02:25.082Z,66.01
2023-01-07T13:05:00.633Z,65.25
2023-01-07T13:07:38.434Z,64.67
2023-01-07T13:10:15.489Z,64.96
2023-01-07T13:12:45.345Z,63.77
2023-01-07T13:15:20.050Z,63.46
2023-01-07T13:17:49.967Z,65.17
2023-01-07T13:20:30.537Z,66.08
2023-01-07T13:23:00.298Z,66.35
2023-01-07T13:25:45.718Z,66.38
2023-01-07T13:28:36.496Z,65.67
2023-01-07T13:31:23.269Z,66.32
2023-01-07T13:34:04.312Z,66.26
2023-01-07T13:36:40.017Z,66.50
2023-01-07T13:39:37.865Z,66.55
2023-01-07T13:42:33.683Z,67.04
2023-01-07T13:45:08.204Z,66.79
2023-01-07T13:47:50.263Z,66.31
2023-01-07T13:50:22.079Z,65.48
2023-01-07T13:53:01.678Z,65.66
2023-01-07T13:55:36.341Z,64.54
2023-01-07T13:58:51.269Z,63.90
2023-01-07T14:01:20.701Z,64.71
2023-01-07T14:03:51.286Z,65.81
2023-01-07T14:06:44.120Z,66.94
2023-01-07T14:09:17.485Z,67.05
2023-01-07T14:12:01.356Z,66.42
2023-01-07T14:14:37.449Z,65.32
2023-01-07T14:17:15.969Z,64.80
2023-01-07T14:19:52.677Z,66.14
2023-01-07T14:22:35.695Z,66.41
2023-01-07T14:25:22.759Z,66.80
2023-01-07T14:28:26.609Z,67.26
2023-01-07T14:30:55.195Z,67.27
2023-01-07T14:33:25.467Z,67.52
2023-01-07T14:35:57.302Z,68.13
2023-01-07T14:38:55.699Z,68.39
2023-01-07T14:41:23.422Z,68.55
2023-01-07T14:44:28.181Z,68.06
2023-01-07T14:46:55.987Z,66.88
2023-01-07T14:49:55.464Z,66.79
2023-01-07T14:52:54.457Z,65.77
2023-01-07T14:55:39.232Z,67.43
2023-01-07T14:58:32.667Z,67.14
2023-01-07T15:01:22.238Z,67.08
2023-01-07T15:03:57.266Z,67.08
2023-01-07T15:06:28.849Z,68.26
2023-01-07T15:09:05.092Z,68.25
2023-01-07T15:11:34.395Z,68.78
2023-01-07T15:14:07.407Z,68.27
2023-01-07T15:16:36.519Z,67.29
2023-01-07T15:19:04.238Z,67.81
2023-01-07T15:21:43.801Z,68.12
2023-01-07T15:24:28.109Z,67.72
2023-01-07T15:27:02.966Z,69.98
2023-01-07T15:29:43.607Z,70.93
2023-01-07T15:32:23.802Z,70.07
2023-01-07T15:34:51.670Z,70.65
2023-01-07T15:37:20.644Z,71.36
2023-01-07T15:39:59.809Z,71.83
2023-01-07T15:42:28.194Z,69.55
2023-01-07T15:44:58.681Z,69.38
2023-01-07T15:47:36.525Z,69.95
2023-01-07T15:50:26.092Z,71.24
2023-01-07T15:52:59.171Z,69.23
2023-01-07T15:55:33.272Z,71.08
2023-01-07T15:58:04.653Z,70.87
2023-01-07T16:00:32.835Z,71.57
2023-01-07T16:03:01.801Z,71.59
2023-01-07T16:05:29.996Z,71.96
2023-01-07T16:08:00.167Z,71.63
2023-01-07T16:10:32.669Z,71.41
2023-01-07T16:13:03.965Z,70.91
2023-01-07T16:15:33.385Z,71.11
2023-01-07T16:18:04.717Z,71.39
2023-01-07T16:20:35.835Z,72.50
2023-01-07T16:23:20.750Z,72.63
2023-01-07T16:25:53.876Z,73.34
2023-01-07T16:28:24.654Z,74.23
2023-01-07T16:30:52.815Z,74.28
2023-01-07T16:33:24.610Z,74.31
2023-01-07T16:35:56.362Z,75.04
2023-01-07T16:38:25.845Z,75.09
2023-01-07T16:40:55.591Z,74.95
2023-01-07T16:43:42.603Z,76.02
2023-01-07T16:46:24.900Z,76.30
2023-01-07T16:49:26.827Z,75.39
2023-01-07T16:52:04.041Z,75.62
2023-01-07T16:54:34.787Z,76.29
2023-01-07T16:57:06.064Z,77.68
2023-01-07T16:59:36.960Z,79.37
2023-01-07T17:02:13.092Z,78.80
2023-01-07T17:04:41.325Z,77.33
2023-01-07T17:07:19.871Z,76.01
2023-01-07T17:09:48.965Z,75.79
2023-01-07T17:12:36.338Z,76.80
2023-01-07T17:15:28.732Z,78.21
2023-01-07T17:18:26.453Z,79.13
2023-01-07T17:20:56.936Z,78.91
2023-01-07T17:23:43.652Z,78.20
2023-01-07T17:26:22.743Z,77.53
2023-01-07T17:28:54.064Z,77.43
2023-01-07T17:31:23.304Z,77.17
2023-01-07T17:33:51.533Z,78.38
2023-01-07T17:36:21.482Z,78.83
2023-01-07T17:38:49.411Z,80.67
2023-01-07T17:41:19.667Z,81.11
2023-01-07T17:43:47.246Z,81.38
2023-01-07T17:46:17.215Z,83.74
2023-01-07T17:48:44.897Z,84.19
2023-01-07T17:51:13.123Z,83.73
2023-01-07T17:53:44.647Z,85.30
2023-01-07T17:56:12.815Z,86.15
2023-01-07T17:58:40.523Z,86.30
2023-01-07T18:01:11.660Z,85.68
2023-01-07T18:03:43.444Z,84.88
2023-01-07T18:06:16.090Z,84.28
2023-01-07T18:08:44.094Z,83.75
2023-01-07T18:11:15.667Z,83.63
2023-01-07T18:13:43.260Z,83.49
2023-01-07T18:16:13.635Z,83.82
2023-01-07T18:18:42.980Z,83.98
2023-01-07T18:21:13.828Z,84.03
2023-01-07T18:23:43.660Z,84.35
2023-01-07T18:26:12.509Z,84.40
2023-01-07T18:28:40.177Z,83.77
2023-01-07T18:31:08.931Z,83.22
2023-01-07T18:33:37.119Z,83.34
2023-01-07T18:36:07.981Z,83.44
2023-01-07T18:38:35.644Z,83.66
2023-01-07T18:41:04.014Z,82.98
2023-01-07T18:43:31.898Z,82.89
2023-01-07T18:46:00.851Z,82.08
2023-01-07T18:48:28.485Z,82.01
2023-01-07T18:50:56.956Z,82.05
2023-01-07T18:53:26.691Z,83.28
2023-01-07T18:55:59.541Z,83.00
2023-01-07T18:58:27.382Z,82.20
2023-01-07T19:00:55.821Z,82.18
2023-01-07T19:03:23.650Z,81.80
2023-01-07T19:05:51.850Z,81.90
2023-01-07T19:08:19.514Z,81.72
2023-01-07T19:10:49.100Z,81.07
2023-01-07T19:13:16.816Z,81.20
2023-01-07T19:15:44.891Z,80.24
2023-01-07T19:18:12.982Z,80.69
2023-01-07T19:20:41.451Z,80.55
2023-01-07T19:23:09.569Z,80.16
2023-01-07T19:25:38.284Z,80.21
2023-01-07T19:28:07.606Z,80.22
2023-01-07T19:30:36.000Z,81.24
2023-01-07T19:33:03.866Z,81.01
2023-01-07T19:35:32.280Z,81.03
2023-01-07T19:37:59.884Z,81.94
2023-01-07T19:40:28.008Z,82.19
2023-01-07T19:42:55.709Z,81.94
2023-01-07T19:45:25.354Z,81.75
2023-01-07T19:47:53.219Z,82.03
2023-01-07T19:50:22.120Z,81.73
2023-01-07T19:52:49.892Z,80.84
2023-01-07T19:55:17.910Z,80.47
2023-01-07T19:57:45.956Z,81.29
2023-01-07T20:00:14.517Z,82.52
2023-01-07T20:02:43.895Z,82.52
2023-01-07T20:05:12.041Z,81.80
2023-01-07T20:07:39.888Z,81.31
2023-01-07T20:10:08.845Z,81.39
2023-01-07T20:12:36.338Z,81.98
2023-01-07T20:15:04.946Z,82.26
2023-01-07T20:17:32.731Z,81.49
2023-01-07T20:20:02.286Z,81.29
2023-01-07T20:22:30.972Z,80.74
2023-01-07T20:24:59.534Z,81.19
2023-01-07T20:27:27.081Z,80.59
2023-01-07T20:29:55.566Z,81.39
2023-01-07T20:32:23.332Z,80.61
2023-01-07T20:34:52.054Z,80.41
2023-01-07T20:37:23.405Z,80.61
2023-01-07T20:39:51.950Z,80.52
2023-01-07T20:42:20.628Z,80.77
2023-01-07T20:44:50.178Z,81.63
2023-01-07T20:47:18.651Z,82.33
2023-01-07T20:52:31.677Z,82.45
2023-01-07T20:55:00.112Z,83.99
2023-01-07T20:57:27.932Z,85.84
2023-01-07T20:59:55.871Z,86.23
2023-01-07T21:02:23.755Z,87.25
2023-01-07T21:04:51.906Z,87.34
2023-01-07T21:07:20.135Z,87.09
2023-01-07T21:09:49.612Z,86.79
2023-01-07T21:12:17.634Z,86.41
2023-01-07T21:14:45.952Z,86.06
2023-01-07T21:17:13.613Z,85.52
2023-01-07T21:19:41.763Z,86.03
2023-01-07T21:22:09.571Z,86.71
2023-01-07T21:24:39.179Z,85.58
2023-01-07T21:27:08.452Z,85.76
2023-01-07T21:29:36.339Z,86.23
2023-01-07T21:32:04.139Z,85.87
2023-01-07T21:34:32.195Z,85.17
2023-01-07T21:37:02.887Z,85.16
2023-01-07T21:39:30.902Z,85.24
2023-01-07T21:41:58.510Z,86.07
2023-01-07T21:44:27.948Z,87.01
2023-01-07T21:46:55.539Z,87.46
2023-01-07T21:49:23.831Z,87.34
2023-01-07T21:51:51.501Z,87.21
2023-01-07T21:54:19.435Z,87.45
2023-01-07T21:56:47.256Z,86.28
2023-01-07T21:59:15.963Z,86.69
2023-01-07T22:01:45.472Z,86.46
2023-01-07T22:04:13.513Z,84.86
2023-01-07T22:06:42.137Z,84.78
2023-01-07T22:09:14.379Z,83.98
2023-01-07T22:11:42.947Z,84.27
2023-01-07T22:14:14.160Z,84.82
2023-01-07T22:16:42.254Z,84.68
2023-01-07T22:19:12.245Z,84.40
2023-01-07T22:21:39.878Z,84.94
2023-01-07T22:24:08.271Z,85.20
2023-01-07T22:26:35.825Z,85.98
2023-01-07T22:29:07.440Z,85.95
2023-01-07T22:31:37.242Z,85.59
2023-01-07T22:34:06.427Z,85.65
2023-01-07T22:36:41.523Z,86.32
2023-01-07T22:39:13.791Z,85.80
2023-01-07T22:41:41.790Z,85.95
2023-01-07T22:44:13.911Z,86.48
2023-01-07T22:46:44.551Z,86.59
2023-01-07T22:49:12.754Z,85.63
2023-01-07T22:51:45.611Z,86.02
2023-01-07T22:54:15.244Z,84.73
2023-01-07T22:56:44.265Z,85.14
2023-01-07T22:59:12.747Z,84.64
2023-01-07T23:01:40.498Z,84.77
2023-01-07T23:04:09.095Z,84.37
2023-01-07T23:06:36.773Z,83.04
2023-01-07T23:09:06.467Z,82.50
2023-01-07T23:11:34.314Z,81.96
2023-01-07T23:14:02.354Z,81.11
2023-01-07T23:16:29.798Z,80.97
2023-01-07T23:18:57.973Z,81.37
2023-01-07T23:21:25.710Z,82.44
2023-01-07T23:23:54.012Z,83.68
2023-01-07T23:26:23.259Z,84.21
2023-01-07T23:28:51.231Z,84.42
2023-01-07T23:31:18.927Z,83.68
2023-01-07T23:33:47.037Z,84.54
2023-01-07T23:36:14.592Z,84.60
2023-01-07T23:38:43.003Z,84.60
2023-01-07T23:41:12.067Z,83.94
2023-01-07T23:43:44.410Z,83.38
2023-01-07T23:46:12.358Z,82.86
2023-01-07T23:48:40.441Z,82.37
2023-01-07T23:51:11.984Z,82.81
2023-01-07T23:53:40.352Z,83.67
2023-01-07T23:56:08.826Z,83.04
2023-01-07T23:58:37.987Z,82.34
